Time;durP1;ratioP1;P1;durP2;ratioP2;P2;SDS_P1;SDS_P2;PMS_P1;PMS_P2;Temp;Humidity;BMP_temperature;BMP_pressure;BME280_temperature;BME280_humidity;BME280_pressure;Samples;Min_cycle;Max_cycle;Signal;HPM_P1;HPM_P2
2022/07/11 00:02:07;;;;;;;9.73;4.47;;;18.60;33.10;;;;;;5043624;28;20441;-67
2022/07/11 00:04:33;;;;;;;10.20;4.77;;;18.60;33.40;;;;;;5043365;28;20843;-67
2022/07/11 00:06:59;;;;;;;6.57;4.30;;;18.70;33.80;;;;;;5040668;28;20436;-67
2022/07/11 00:09:25;;;;;;;6.47;4.60;;;18.60;33.30;;;;;;5031480;28;20574;-68
2022/07/11 00:11:51;;;;;;;6.40;4.53;;;18.60;34.50;;;;;;5039632;28;20985;-67
2022/07/11 00:14:17;;;;;;;8.97;4.67;;;18.60;33.40;;;;;;5035354;28;20250;-66
2022/07/11 00:16:43;;;;;;;6.37;4.33;;;18.80;34.30;;;;;;5038714;28;20227;-67
2022/07/11 00:19:09;;;;;;;7.33;4.17;;;18.60;33.80;;;;;;5038374;28;20910;-67
2022/07/11 00:21:36;;;;;;;8.20;4.37;;;18.70;34.40;;;;;;5041720;28;20216;-67
2022/07/11 00:24:02;;;;;;;10.53;4.50;;;18.50;34.80;;;;;;5042990;28;20858;-67
2022/07/11 00:26:28;;;;;;;7.80;4.60;;;18.50;34.10;;;;;;5033447;28;20423;-67
2022/07/11 00:28:54;;;;;;;6.63;5.00;;;18.50;34.40;;;;;;5026070;28;20534;-67
2022/07/11 00:31:19;;;;;;;10.13;8.40;;;18.60;34.90;;;;;;5033123;28;20182;-67
2022/07/11 00:33:45;;;;;;;15.70;9.37;;;18.40;34.00;;;;;;5032792;28;20859;-67
2022/07/11 00:36:11;;;;;;;9.40;7.00;;;18.60;35.20;;;;;;5051379;28;20190;-67
2022/07/11 00:38:37;;;;;;;9.43;6.60;;;18.50;34.70;;;;;;5016329;28;20209;-67
2022/07/11 00:41:03;;;;;;;12.30;7.20;;;18.60;35.30;;;;;;5044210;28;20901;-67
2022/07/11 00:43:36;;;;;;;13.23;7.27;;;18.60;35.30;;;;;;5031030;28;20683;-67
2022/07/11 00:46:03;;;;;;;11.53;5.73;;;18.60;35.20;;;;;;5044206;28;20173;-68
2022/07/11 00:48:29;;;;;;;7.73;4.40;;;18.60;35.30;;;;;;5032641;28;20420;-69
2022/07/11 00:50:56;;;;;;;7.97;4.90;;;18.50;34.50;;;;;;5034366;28;20429;-67
2022/07/11 00:53:22;;;;;;;9.47;5.13;;;18.00;34.30;;;;;;5031059;28;20464;-67
2022/07/11 00:55:49;;;;;;;8.43;4.50;;;17.90;35.50;;;;;;5031727;28;20538;-67
2022/07/11 00:58:15;;;;;;;6.97;4.00;;;17.70;36.10;;;;;;5042128;28;20978;-67
2022/07/11 01:00:41;;;;;;;9.10;4.20;;;17.80;36.40;;;;;;5032837;28;20436;-67
2022/07/11 01:03:07;;;;;;;10.27;4.10;;;17.90;36.30;;;;;;5038327;28;20852;-67
2022/07/11 01:05:33;;;;;;;7.17;4.33;;;18.20;36.40;;;;;;5042325;28;20185;-67
2022/07/11 01:07:59;;;;;;;7.13;4.30;;;18.50;35.70;;;;;;5030530;28;20436;-67
2022/07/11 01:10:25;;;;;;;4.50;3.90;;;18.80;32.60;;;;;;5031493;28;20440;-67
2022/07/11 01:12:50;;;;;;;6.00;4.17;;;19.10;31.90;;;;;;5038092;28;20447;-67
2022/07/11 01:15:16;;;;;;;11.13;3.70;;;19.00;33.10;;;;;;5037309;28;20243;-67
2022/07/11 01:17:42;;;;;;;6.53;3.60;;;18.80;33.50;;;;;;5041921;28;20181;-67
2022/07/11 01:20:09;;;;;;;6.23;4.03;;;18.70;34.30;;;;;;5039888;28;20195;-67
2022/07/11 01:22:50;;;;;;;7.50;3.90;;;18.90;32.90;;;;;;5018116;28;20446;-69
2022/07/11 01:25:29;;;;;;;10.20;3.80;;;18.90;32.80;;;;;;5035958;28;20869;-67
2022/07/11 01:27:57;;;;;;;11.13;4.57;;;19.00;32.10;;;;;;5036008;28;20420;-67
2022/07/11 01:30:23;;;;;;;10.20;4.03;;;18.90;33.10;;;;;;5026282;28;20860;-67
2022/07/11 01:32:50;;;;;;;6.90;4.23;;;19.10;32.40;;;;;;5027357;28;20542;-67
2022/07/11 01:35:16;;;;;;;7.50;3.63;;;19.00;33.10;;;;;;5035314;28;20593;-67
2022/07/11 01:37:41;;;;;;;7.80;4.30;;;19.10;32.20;;;;;;5045725;28;20439;-67
2022/07/11 01:40:08;;;;;;;8.90;3.70;;;19.00;33.80;;;;;;5042037;28;20204;-67
2022/07/11 01:42:33;;;;;;;10.60;4.20;;;18.70;35.20;;;;;;5029947;28;20219;-68
2022/07/11 01:44:59;;;;;;;9.20;4.50;;;18.60;34.10;;;;;;5033412;28;20432;-67
2022/07/11 01:47:24;;;;;;;5.97;4.20;;;16.10;33.00;;;;;;5038598;28;20629;-67
2022/07/11 01:49:50;;;;;;;7.57;4.33;;;18.00;35.40;;;;;;5034557;28;20195;-67
2022/07/11 01:52:16;;;;;;;7.07;4.60;;;17.60;37.00;;;;;;5038292;28;20302;-68
2022/07/11 01:54:41;;;;;;;5.70;4.33;;;17.60;37.10;;;;;;5023739;28;20237;-66
2022/07/11 01:57:09;;;;;;;37.27;4.70;;;17.40;36.60;;;;;;5034894;28;20225;-67
2022/07/11 01:59:35;;;;;;;11.10;5.70;;;17.70;36.90;;;;;;5025732;28;20261;-67
2022/07/11 02:02:01;;;;;;;8.50;5.33;;;17.90;36.60;;;;;;5041278;28;20448;-67
2022/07/11 02:04:26;;;;;;;7.97;5.60;;;18.00;36.90;;;;;;5034565;28;20180;-67
2022/07/11 02:06:52;;;;;;;11.20;6.13;;;18.20;36.20;;;;;;5031817;28;20189;-67
2022/07/11 02:09:18;;;;;;;10.00;6.90;;;18.30;36.10;;;;;;5034650;28;20325;-66
2022/07/11 02:11:43;;;;;;;8.90;6.30;;;18.30;35.50;;;;;;5033592;28;20276;-67
2022/07/11 02:14:09;;;;;;;11.63;6.30;;;18.30;35.90;;;;;;5033617;28;20193;-67
2022/07/11 02:16:35;;;;;;;8.83;6.37;;;18.20;36.90;;;;;;5024588;28;20641;-67
2022/07/11 02:19:00;;;;;;;9.87;6.20;;;18.20;36.60;;;;;;5027502;28;20270;-66
2022/07/11 02:21:26;;;;;;;10.03;5.60;;;18.10;36.80;;;;;;5029769;28;20356;-66
2022/07/11 02:23:51;;;;;;;10.30;5.57;;;18.20;36.10;;;;;;5035296;28;20623;-66
2022/07/11 02:26:17;;;;;;;9.43;5.40;;;18.30;36.60;;;;;;5026995;28;20598;-68
2022/07/11 02:28:44;;;;;;;10.63;5.70;;;18.30;36.70;;;;;;5030754;28;20225;-68
2022/07/11 02:31:10;;;;;;;11.93;5.23;;;18.20;36.10;;;;;;5035319;28;20654;-67
2022/07/11 02:33:35;;;;;;;11.20;5.40;;;18.10;35.50;;;;;;5019641;28;20907;-67
2022/07/11 02:36:01;;;;;;;8.57;5.13;;;18.00;36.40;;;;;;5033713;28;20212;-68
2022/07/11 02:38:27;;;;;;;7.97;4.87;;;18.10;36.80;;;;;;5032712;28;20215;-68
2022/07/11 02:40:53;;;;;;;7.50;4.60;;;18.00;36.60;;;;;;5041125;28;20462;-67
2022/07/11 02:43:19;;;;;;;6.83;4.60;;;17.60;37.00;;;;;;5040731;28;20289;-66
2022/07/11 02:45:44;;;;;;;12.40;4.63;;;17.70;37.40;;;;;;5038531;28;20958;-66
2022/07/11 02:48:10;;;;;;;10.33;4.63;;;18.10;37.00;;;;;;5044360;28;20418;-66
2022/07/11 02:50:36;;;;;;;9.03;4.60;;;18.00;37.40;;;;;;5042679;28;20290;-67
2022/07/11 02:53:01;;;;;;;9.67;4.87;;;17.90;36.70;;;;;;5045847;28;20200;-67
2022/07/11 02:55:27;;;;;;;7.37;4.67;;;17.90;37.10;;;;;;5033126;28;20653;-68
2022/07/11 02:57:53;;;;;;;7.50;4.27;;;17.90;37.90;;;;;;5030475;28;20328;-67
2022/07/11 03:00:18;;;;;;;8.50;4.37;;;17.80;37.60;;;;;;5040874;28;20540;-66
2022/07/11 03:02:45;;;;;;;8.87;4.57;;;17.70;37.40;;;;;;5038228;28;20245;-67
2022/07/11 03:05:12;;;;;;;8.30;4.37;;;17.70;37.20;;;;;;5041658;28;20544;-67
2022/07/11 03:07:38;;;;;;;7.33;4.40;;;17.80;37.60;;;;;;5033397;28;20517;-67
2022/07/11 03:10:05;;;;;;;6.83;4.30;;;17.90;37.70;;;;;;5045022;28;20461;-68
2022/07/11 03:12:30;;;;;;;8.17;4.80;;;17.80;37.50;;;;;;5036799;28;20508;-66
2022/07/11 03:14:56;;;;;;;8.97;3.97;;;17.80;37.70;;;;;;5038679;28;20445;-67
2022/07/11 03:17:22;;;;;;;4.50;4.07;;;17.80;38.20;;;;;;5031416;28;20195;-67
2022/07/11 03:19:48;;;;;;;6.40;4.33;;;17.70;38.10;;;;;;5037056;28;20710;-67
2022/07/11 03:22:14;;;;;;;6.93;4.20;;;17.60;38.10;;;;;;5036317;28;20446;-67
2022/07/11 03:24:41;;;;;;;7.40;4.43;;;17.70;38.20;;;;;;5030903;28;20186;-68
2022/07/11 03:27:07;;;;;;;8.37;4.93;;;18.00;38.20;;;;;;5037145;28;20518;-66
2022/07/11 03:29:33;;;;;;;5.90;4.30;;;18.00;38.40;;;;;;5040403;28;20486;-67
2022/07/11 03:31:59;;;;;;;6.43;4.40;;;18.00;37.80;;;;;;5042794;28;22179;-67
2022/07/11 03:34:25;;;;;;;6.57;4.23;;;17.90;38.60;;;;;;5044152;28;20457;-67
2022/07/11 03:36:50;;;;;;;7.50;4.07;;;18.00;38.40;;;;;;5033141;28;20432;-67
2022/07/11 03:39:16;;;;;;;11.13;5.40;;;17.90;38.50;;;;;;5031490;28;20212;-67
2022/07/11 03:41:42;;;;;;;7.47;4.63;;;18.00;38.00;;;;;;5033438;28;20224;-68
2022/07/11 03:44:08;;;;;;;5.73;3.93;;;18.00;39.00;;;;;;5043650;28;20168;-67
2022/07/11 03:46:34;;;;;;;10.80;4.53;;;17.90;38.00;;;;;;5032545;28;20652;-67
2022/07/11 03:49:00;;;;;;;7.40;4.83;;;18.10;37.20;;;;;;5033890;28;20434;-67
2022/07/11 03:51:25;;;;;;;7.43;4.80;;;18.20;38.10;;;;;;5032436;28;20177;-67
2022/07/11 03:53:51;;;;;;;9.60;5.37;;;18.20;37.60;;;;;;5040277;28;20255;-68
2022/07/11 03:56:20;;;;;;;9.20;5.10;;;18.30;37.60;;;;;;5040394;28;20184;-67
2022/07/11 03:58:46;;;;;;;9.63;5.07;;;18.20;38.80;;;;;;5033062;28;20204;-67
2022/07/11 04:01:11;;;;;;;13.93;5.60;;;18.20;38.60;;;;;;5029812;28;20526;-67
2022/07/11 04:03:37;;;;;;;9.37;5.60;;;18.10;37.40;;;;;;5031585;28;20243;-69
2022/07/11 04:06:03;;;;;;;7.13;4.70;;;18.20;38.60;;;;;;5033945;28;20542;-67
2022/07/11 04:08:28;;;;;;;7.60;4.90;;;18.10;39.00;;;;;;5035768;28;20177;-67
2022/07/11 04:10:54;;;;;;;9.50;4.80;;;18.00;39.00;;;;;;5032282;28;20712;-69
2022/07/11 04:13:19;;;;;;;12.43;4.67;;;17.40;39.20;;;;;;5037031;28;20197;-68
2022/07/11 04:15:45;;;;;;;6.53;4.67;;;17.30;40.00;;;;;;5032214;28;20656;-67
2022/07/11 04:18:10;;;;;;;8.87;5.37;;;17.50;39.90;;;;;;5038686;28;20251;-67
2022/07/11 04:20:36;;;;;;;9.43;5.50;;;17.70;39.50;;;;;;5032310;28;20169;-69
2022/07/11 04:23:02;;;;;;;6.00;4.93;;;17.90;39.70;;;;;;5025581;28;20231;-68
2022/07/11 04:25:27;;;;;;;6.80;5.23;;;17.80;39.10;;;;;;5024792;28;20182;-68
2022/07/11 04:27:53;;;;;;;8.07;5.33;;;17.80;39.20;;;;;;5032069;28;20276;-69
2022/07/11 04:30:18;;;;;;;12.27;5.20;;;17.80;39.20;;;;;;5032155;28;20177;-68
2022/07/11 04:32:44;;;;;;;12.20;5.67;;;17.70;39.10;;;;;;5031955;28;20687;-68
2022/07/11 04:35:10;;;;;;;7.40;5.20;;;17.70;38.40;;;;;;5041909;28;20658;-68
2022/07/11 04:37:35;;;;;;;9.90;5.33;;;17.60;39.10;;;;;;5020916;28;20187;-67
2022/07/11 04:40:01;;;;;;;9.83;5.40;;;17.70;39.50;;;;;;5023150;28;20196;-69
2022/07/11 04:42:26;;;;;;;16.43;5.30;;;17.70;39.50;;;;;;5027391;28;20215;-67
2022/07/11 04:44:52;;;;;;;11.30;5.30;;;17.40;40.20;;;;;;5023555;28;20259;-69
2022/07/11 04:47:19;;;;;;;7.60;4.83;;;17.30;39.90;;;;;;5031784;28;20202;-67
2022/07/11 04:49:46;;;;;;;6.93;5.33;;;17.50;39.60;;;;;;5029882;28;20177;-68
2022/07/11 04:52:13;;;;;;;8.63;5.03;;;17.60;39.40;;;;;;5023769;28;20465;-67
2022/07/11 04:54:39;;;;;;;9.00;4.60;;;17.90;39.70;;;;;;5033647;28;20434;-68
2022/07/11 04:57:04;;;;;;;6.63;4.70;;;18.00;38.30;;;;;;5023473;28;20485;-68
2022/07/11 04:59:30;;;;;;;6.63;4.60;;;18.20;38.30;;;;;;5030314;28;20212;-68
2022/07/11 05:01:56;;;;;;;8.03;4.70;;;18.30;38.90;;;;;;5028541;28;21107;-68
2022/07/11 05:04:23;;;;;;;6.40;4.50;;;18.30;39.10;;;;;;5024784;28;21679;-67
2022/07/11 05:06:48;;;;;;;7.40;4.20;;;18.50;37.10;;;;;;5032781;28;20750;-67
2022/07/11 05:09:14;;;;;;;6.30;4.23;;;18.70;36.70;;;;;;5024875;28;20524;-69
2022/07/11 05:11:39;;;;;;;11.20;4.47;;;18.70;36.70;;;;;;5018996;28;20823;-67
2022/07/11 05:14:05;;;;;;;9.20;4.07;;;18.80;35.30;;;;;;5020987;28;20183;-67
2022/07/11 05:16:30;;;;;;;5.53;4.23;;;18.80;35.70;;;;;;5034186;28;20516;-66
2022/07/11 05:18:56;;;;;;;8.33;4.60;;;18.90;35.20;;;;;;5030881;28;20205;-69
2022/07/11 05:21:23;;;;;;;7.77;4.27;;;18.80;36.30;;;;;;5025869;28;20295;-67
2022/07/11 05:23:49;;;;;;;11.90;4.97;;;19.00;34.60;;;;;;5031349;28;20705;-67
2022/07/11 05:26:15;;;;;;;9.30;4.60;;;19.00;35.60;;;;;;5031143;28;20407;-68
2022/07/11 05:28:41;;;;;;;9.77;4.60;;;19.00;36.10;;;;;;5031372;28;20410;-66
2022/07/11 05:31:07;;;;;;;9.83;4.67;;;18.90;36.80;;;;;;5030999;28;20242;-68
2022/07/11 05:33:34;;;;;;;10.93;4.60;;;18.90;37.00;;;;;;5030798;28;20502;-66
2022/07/11 05:36:00;;;;;;;7.13;4.13;;;19.00;36.30;;;;;;5013000;28;20658;-67
2022/07/11 05:38:26;;;;;;;7.10;4.10;;;18.80;36.50;;;;;;5031632;28;20467;-67
2022/07/11 05:40:52;;;;;;;9.73;3.90;;;18.90;37.30;;;;;;5031169;28;20766;-67
2022/07/11 05:43:17;;;;;;;4.53;3.90;;;19.00;36.40;;;;;;5030534;28;20209;-68
2022/07/11 05:45:43;;;;;;;5.60;4.17;;;19.00;36.40;;;;;;5030724;28;20168;-66
2022/07/11 05:48:09;;;;;;;5.47;3.87;;;19.00;35.60;;;;;;5031036;28;20252;-67
2022/07/11 05:50:35;;;;;;;7.70;3.80;;;19.10;34.80;;;;;;5030992;28;20174;-66
2022/07/11 05:53:02;;;;;;;8.20;4.07;;;19.00;35.40;;;;;;5030356;28;20432;-66
2022/07/11 05:55:28;;;;;;;15.20;4.40;;;18.70;35.70;;;;;;5030600;28;20940;-67
2022/07/11 05:57:54;;;;;;;9.40;4.30;;;18.80;36.40;;;;;;5030790;28;20415;-66
2022/07/11 06:00:21;;;;;;;9.97;5.20;;;18.80;36.30;;;;;;5030964;28;20465;-67
2022/07/11 06:02:47;;;;;;;7.73;5.17;;;18.90;36.30;;;;;;5030557;28;20196;-67
2022/07/11 06:05:13;;;;;;;13.17;6.10;;;18.90;35.90;;;;;;5030661;28;20496;-66
2022/07/11 06:10:23;;;;;;;14.00;7.53;;;18.60;35.70;;;;;;5030707;28;20460;-67
2022/07/11 06:12:49;;;;;;;9.97;6.90;;;18.20;37.40;;;;;;5030509;28;20437;-67
2022/07/11 06:15:14;;;;;;;8.40;6.50;;;18.60;37.10;;;;;;5030540;28;20664;-67
2022/07/11 06:17:40;;;;;;;14.80;7.20;;;19.00;35.60;;;;;;5030599;28;20221;-67
2022/07/11 06:20:08;;;;;;;18.43;6.90;;;19.30;34.80;;;;;;5030688;28;20201;-67
2022/07/11 06:22:33;;;;;;;9.60;5.17;;;19.60;35.30;;;;;;5030453;28;20196;-67
2022/07/11 06:24:59;;;;;;;6.83;4.60;;;19.10;35.10;;;;;;5033170;28;20508;-68
2022/07/11 06:27:25;;;;;;;12.30;5.07;;;18.80;36.00;;;;;;5033290;28;20170;-67
2022/07/11 06:29:50;;;;;;;10.17;4.53;;;19.10;35.80;;;;;;5034209;28;20179;-68
2022/07/11 06:32:16;;;;;;;10.00;5.23;;;19.60;34.30;;;;;;5033938;28;20605;-67
2022/07/11 06:34:42;;;;;;;12.73;5.20;;;19.90;34.20;;;;;;5034096;28;20177;-67
2022/07/11 06:37:07;;;;;;;7.50;4.90;;;19.80;35.60;;;;;;5034364;28;20179;-67
2022/07/11 06:39:33;;;;;;;10.13;6.57;;;19.50;34.60;;;;;;5033870;28;20214;-67
2022/07/11 06:41:59;;;;;;;15.23;6.67;;;18.90;36.20;;;;;;5033575;28;20207;-69
2022/07/11 06:44:24;;;;;;;9.63;6.10;;;19.30;37.00;;;;;;5034201;28;20168;-67
2022/07/11 06:46:50;;;;;;;10.77;5.70;;;19.40;35.50;;;;;;5034198;28;20199;-66
2022/07/11 06:49:16;;;;;;;11.37;6.90;;;18.90;37.40;;;;;;5032966;28;20522;-67
2022/07/11 06:51:41;;;;;;;8.60;6.80;;;19.40;36.50;;;;;;5033259;28;20182;-67
2022/07/11 06:54:07;;;;;;;8.73;5.60;;;19.90;35.80;;;;;;5033670;28;20641;-67
2022/07/11 06:56:33;;;;;;;9.83;5.40;;;19.50;35.80;;;;;;5034085;28;20445;-67
2022/07/11 06:58:58;;;;;;;15.67;6.90;;;19.00;36.50;;;;;;5033735;28;20211;-66
2022/07/11 07:01:24;;;;;;;13.53;8.00;;;18.70;39.00;;;;;;5033461;28;20171;-67
2022/07/11 07:03:50;;;;;;;10.40;7.50;;;19.10;36.70;;;;;;5033146;28;20184;-67
2022/07/11 07:06:15;;;;;;;13.57;8.30;;;19.60;38.20;;;;;;5033639;28;20179;-67
2022/07/11 07:08:41;;;;;;;16.30;8.00;;;19.90;35.10;;;;;;5032529;28;20184;-66
2022/07/11 07:11:06;;;;;;;10.70;8.50;;;19.50;37.30;;;;;;5031951;28;20675;-67
2022/07/11 07:13:32;;;;;;;20.70;9.53;;;19.50;36.80;;;;;;5033053;28;20197;-67
2022/07/11 07:15:58;;;;;;;14.47;8.57;;;19.40;37.00;;;;;;5033491;28;20173;-67
2022/07/11 07:18:24;;;;;;;10.43;8.77;;;19.30;37.90;;;;;;5033444;28;20640;-66
2022/07/11 07:20:51;;;;;;;10.77;7.60;;;19.90;36.40;;;;;;5015266;28;20180;-68
2022/07/11 07:23:17;;;;;;;10.17;7.90;;;20.40;34.80;;;;;;5033681;28;20430;-66
2022/07/11 07:25:44;;;;;;;13.30;8.90;;;20.60;34.20;;;;;;5033114;28;20411;-66
2022/07/11 07:28:10;;;;;;;12.50;8.50;;;20.00;35.40;;;;;;5033403;28;20442;-67
2022/07/11 07:30:36;;;;;;;15.67;8.03;;;20.40;35.50;;;;;;5033300;28;20503;-67
2022/07/11 07:33:02;;;;;;;22.33;8.30;;;20.70;34.70;;;;;;5033041;28;20843;-67
2022/07/11 07:35:28;;;;;;;8.20;6.90;;;21.00;34.10;;;;;;5032771;28;20520;-67
2022/07/11 07:37:54;;;;;;;12.83;7.77;;;21.10;33.80;;;;;;5033008;28;20542;-66
2022/07/11 07:40:20;;;;;;;10.93;7.30;;;21.10;34.30;;;;;;5032957;28;20456;-67
2022/07/11 07:42:45;;;;;;;12.00;9.20;;;21.10;33.70;;;;;;5032642;28;20225;-66
2022/07/11 07:45:11;;;;;;;10.67;8.20;;;20.60;33.80;;;;;;5032737;28;20409;-67
2022/07/11 07:47:37;;;;;;;11.57;8.83;;;19.80;36.60;;;;;;5032724;28;20201;-67
2022/07/11 07:50:05;;;;;;;13.80;9.20;;;19.40;37.60;;;;;;5031542;28;20206;-67
2022/07/11 07:52:31;;;;;;;9.97;7.37;;;19.80;37.30;;;;;;5032366;28;20433;-68
2022/07/11 07:54:56;;;;;;;7.83;6.20;;;20.50;34.50;;;;;;5032564;28;20407;-66
2022/07/11 07:57:22;;;;;;;8.80;7.17;;;20.10;36.10;;;;;;5029231;28;20180;-70
2022/07/11 07:59:47;;;;;;;8.27;5.87;;;19.70;36.00;;;;;;5028949;28;20692;-67
2022/07/11 08:02:13;;;;;;;7.53;5.40;;;19.70;37.00;;;;;;5031935;28;20201;-67
2022/07/11 08:04:38;;;;;;;8.10;5.60;;;20.20;36.30;;;;;;5042318;28;20178;-66
2022/07/11 08:07:04;;;;;;;7.23;5.10;;;20.00;36.00;;;;;;5043946;28;20241;-67
2022/07/11 08:09:30;;;;;;;5.20;4.73;;;20.90;34.40;;;;;;5043678;28;20584;-67
2022/07/11 08:11:55;;;;;;;8.13;5.00;;;20.70;35.40;;;;;;5035485;28;20612;-67
2022/07/11 08:14:22;;;;;;;6.20;5.00;;;21.30;33.80;;;;;;5050350;28;20186;-67
2022/07/11 08:16:48;;;;;;;9.63;5.20;;;21.80;34.10;;;;;;5035180;28;20181;-67
2022/07/11 08:19:13;;;;;;;7.07;4.50;;;22.10;32.50;;;;;;5043296;28;20461;-68
2022/07/11 08:21:39;;;;;;;4.90;4.03;;;21.50;31.40;;;;;;5041538;28;20326;-67
2022/07/11 08:24:05;;;;;;;7.03;4.80;;;21.40;33.20;;;;;;5051122;28;20172;-67
2022/07/11 08:26:32;;;;;;;9.27;4.40;;;21.20;32.40;;;;;;5051429;28;20179;-67
2022/07/11 08:28:57;;;;;;;6.10;5.30;;;20.30;34.80;;;;;;5047234;28;20426;-68
2022/07/11 08:31:24;;;;;;;12.10;4.50;;;20.10;35.30;;;;;;5045888;28;20433;-66
2022/07/11 08:33:50;;;;;;;5.30;4.73;;;20.10;36.50;;;;;;5049636;28;20204;-67
2022/07/11 08:36:16;;;;;;;4.27;3.97;;;21.10;34.30;;;;;;5024870;28;20467;-67
2022/07/11 08:38:46;;;;;;;7.70;4.50;;;21.80;32.80;;;;;;5042581;28;20557;-68
2022/07/11 08:41:12;;;;;;;5.10;4.10;;;22.30;31.30;;;;;;5046726;28;20198;-67
2022/07/11 08:43:40;;;;;;;13.43;4.17;;;21.80;31.40;;;;;;5038742;28;20479;-68
2022/07/11 08:46:07;;;;;;;3.73;3.03;;;20.90;33.80;;;;;;5034252;28;20848;-67
2022/07/11 08:48:33;;;;;;;6.93;3.53;;;21.10;32.90;;;;;;5037012;28;20428;-67
2022/07/11 08:51:00;;;;;;;5.10;3.30;;;21.10;32.00;;;;;;5039446;28;20514;-68
2022/07/11 08:53:27;;;;;;;3.87;3.20;;;21.10;32.80;;;;;;5036215;28;20442;-67
2022/07/11 08:55:53;;;;;;;11.83;3.17;;;21.10;32.90;;;;;;5042581;28;20468;-68
2022/07/11 08:58:19;;;;;;;2.93;2.60;;;21.50;32.70;;;;;;5031483;28;20472;-67
2022/07/11 09:00:45;;;;;;;3.30;2.43;;;22.00;30.80;;;;;;5032953;28;20457;-67
2022/07/11 09:03:15;;;;;;;4.33;2.77;;;22.10;28.60;;;;;;5040669;28;21035;-67
2022/07/11 09:05:42;;;;;;;3.37;2.43;;;22.50;29.80;;;;;;5039798;28;20187;-67
2022/07/11 09:08:08;;;;;;;4.43;2.30;;;22.50;29.20;;;;;;5039303;28;20513;-67
2022/07/11 09:10:37;;;;;;;2.50;2.10;;;22.70;29.20;;;;;;5013707;28;20441;-67
2022/07/11 09:13:06;;;;;;;2.23;1.90;;;23.10;28.20;;;;;;5030905;28;20289;-67
2022/07/11 09:15:42;;;;;;;2.20;2.00;;;22.90;28.10;;;;;;5031238;28;20421;-67
2022/07/11 09:18:30;;;;;;;1.87;1.70;;;22.50;27.80;;;;;;5039283;28;20462;-67
2022/07/11 09:26:51;;;;;;;1.93;1.83;;;23.60;26.70;;;;;;5029976;28;20445;-67
2022/07/11 09:29:24;;;;;;;1.80;1.70;;;24.10;25.50;;;;;;5028667;28;20538;-67
2022/07/11 09:31:50;;;;;;;11.73;1.97;;;24.10;25.80;;;;;;5029285;28;20512;-68
2022/07/11 09:34:21;;;;;;;1.80;1.80;;;24.20;25.50;;;;;;5028014;28;20656;-68
2022/07/11 09:36:50;;;;;;;2.57;1.73;;;24.50;24.90;;;;;;5022694;28;20446;-67
2022/07/11 09:39:18;;;;;;;2.30;2.10;;;24.50;24.90;;;;;;5011201;28;20470;-67
2022/07/11 09:41:46;;;;;;;3.40;2.37;;;23.60;25.00;;;;;;5027569;28;20446;-67
2022/07/11 09:44:12;;;;;;;1.90;1.70;;;24.00;27.40;;;;;;5036726;28;20410;-67
2022/07/11 09:46:40;;;;;;;1.90;1.80;;;24.60;24.50;;;;;;5033985;28;20427;-69
2022/07/11 09:49:06;;;;;;;2.40;1.90;;;24.80;24.00;;;;;;5039247;28;20203;-67
2022/07/11 09:51:36;;;;;;;1.80;1.70;;;24.60;23.90;;;;;;5030498;28;20423;-68
2022/07/11 09:54:06;;;;;;;1.90;1.90;;;24.60;24.60;;;;;;5030788;28;20428;-67
2022/07/11 09:56:42;;;;;;;1.90;1.60;;;24.60;23.80;;;;;;5036347;28;20423;-69
2022/07/11 09:59:10;;;;;;;2.07;1.80;;;24.10;23.30;;;;;;5047863;28;20457;-67
2022/07/11 10:01:36;;;;;;;6.70;1.80;;;24.20;24.20;;;;;;5034448;28;20414;-67
2022/07/11 10:04:07;;;;;;;1.70;1.60;;;24.70;24.80;;;;;;5034760;28;20418;-67
2022/07/11 10:06:34;;;;;;;2.50;1.80;;;25.30;25.20;;;;;;5039292;28;20520;-68
2022/07/11 10:09:02;;;;;;;3.10;1.70;;;25.10;22.80;;;;;;5046081;28;20480;-68
2022/07/11 10:11:29;;;;;;;2.00;1.90;;;24.90;24.80;;;;;;5044897;28;20423;-68
2022/07/11 10:13:55;;;;;;;4.33;1.80;;;24.90;24.30;;;;;;5044425;28;20446;-67
2022/07/11 10:16:34;;;;;;;2.13;1.93;;;25.10;25.60;;;;;;5017548;28;20435;-68
2022/07/11 10:19:16;;;;;;;1.80;1.70;;;25.20;24.90;;;;;;5034674;28;20211;-68
2022/07/11 10:21:53;;;;;;;1.90;1.80;;;25.20;24.00;;;;;;5036702;28;20439;-67
2022/07/11 10:24:53;;;;;;;1.70;1.60;;;24.90;25.00;;;;;;5033663;28;20430;-67
2022/07/11 10:27:48;;;;;;;1.93;1.70;;;24.20;23.90;;;;;;5037587;28;20458;-68
2022/07/11 10:30:33;;;;;;;2.03;1.60;;;24.10;25.60;;;;;;5025573;28;20930;-67
2022/07/11 10:33:04;;;;;;;22.17;2.50;;;24.50;24.50;;;;;;5029722;28;20540;-68
2022/07/11 10:35:30;;;;;;;2.47;2.00;;;25.10;24.40;;;;;;5033600;28;20530;-68
2022/07/11 10:37:58;;;;;;;1.80;1.63;;;25.80;24.00;;;;;;5037846;28;20992;-67
2022/07/11 10:40:43;;;;;;;2.30;1.80;;;25.00;25.30;;;;;;5046391;28;20204;-67
2022/07/11 10:43:09;;;;;;;1.93;1.70;;;24.40;24.20;;;;;;5040516;28;20508;-67
2022/07/11 10:45:57;;;;;;;1.83;1.73;;;25.10;24.80;;;;;;5030561;28;20425;-71
2022/07/11 10:48:24;;;;;;;2.60;1.70;;;25.90;22.90;;;;;;5023347;28;20434;-68
2022/07/11 10:51:08;;;;;;;1.90;1.80;;;25.70;22.70;;;;;;5033814;28;20433;-68
2022/07/11 10:53:44;;;;;;;1.90;1.83;;;24.80;22.80;;;;;;5022962;28;21205;-68
2022/07/11 10:56:59;;;;;;;2.37;1.87;;;24.70;24.10;;;;;;5034825;28;20485;-68
2022/07/11 10:59:25;;;;;;;1.93;1.80;;;24.90;24.10;;;;;;4988602;28;20494;-68
2022/07/11 11:02:10;;;;;;;2.07;1.83;;;25.40;21.80;;;;;;5033020;28;22326;-68
2022/07/11 11:05:00;;;;;;;2.23;1.73;;;24.90;22.70;;;;;;5036168;28;20187;-68
2022/07/11 11:07:40;;;;;;;1.93;1.90;;;24.60;24.60;;;;;;5030383;28;20757;-68
2022/07/11 11:10:18;;;;;;;1.87;1.80;;;25.10;24.10;;;;;;5026965;28;21001;-70
2022/07/11 11:13:04;;;;;;;3.63;1.97;;;25.90;22.90;;;;;;5031847;28;20450;-69
2022/07/11 11:15:44;;;;;;;1.80;1.70;;;26.50;22.00;;;;;;5019339;28;21231;-68
2022/07/11 11:18:25;;;;;;;2.90;1.80;;;26.80;22.90;;;;;;5038329;28;20437;-70
2022/07/11 11:20:59;;;;;;;5.87;2.20;;;27.10;21.10;;;;;;5033740;28;20463;-68
2022/07/11 11:23:27;;;;;;;2.10;1.80;;;27.00;22.40;;;;;;5034150;28;20518;-68
2022/07/11 11:25:53;;;;;;;2.63;1.80;;;27.30;21.00;;;;;;5028587;28;20790;-68
2022/07/11 11:28:23;;;;;;;2.53;2.10;;;27.50;22.10;;;;;;5024699;28;20489;-68
2022/07/11 11:31:03;;;;;;;3.80;2.20;;;27.70;19.90;;;;;;5022263;28;20176;-69
2022/07/11 11:33:32;;;;;;;2.40;2.20;;;27.00;21.40;;;;;;5039625;28;20532;-69
2022/07/11 11:36:01;;;;;;;3.43;2.17;;;26.50;22.10;;;;;;5048401;28;20768;-68
2022/07/11 11:38:28;;;;;;;2.10;1.87;;;26.40;21.50;;;;;;5049517;28;20414;-68
2022/07/11 11:40:53;;;;;;;2.63;2.20;;;26.00;23.30;;;;;;5047496;28;20426;-68
2022/07/11 11:43:22;;;;;;;2.67;2.10;;;26.70;23.70;;;;;;5038700;28;20457;-68
2022/07/11 11:45:49;;;;;;;4.63;1.90;;;26.60;22.30;;;;;;5042128;28;20241;-68
2022/07/11 11:48:33;;;;;;;3.27;2.00;;;25.10;23.80;;;;;;5039918;28;20423;-68
2022/07/11 11:51:02;;;;;;;3.30;2.43;;;25.90;23.20;;;;;;5025864;28;20424;-69
2022/07/11 11:53:29;;;;;;;3.00;2.17;;;27.00;23.00;;;;;;5038272;28;20491;-69
2022/07/11 11:55:55;;;;;;;5.83;2.10;;;27.10;21.30;;;;;;5039231;28;20458;-68
2022/07/11 11:58:20;;;;;;;11.70;2.10;;;27.70;21.30;;;;;;5034747;28;20843;-69
2022/07/11 12:00:56;;;;;;;2.17;2.00;;;28.40;22.40;;;;;;5039370;28;20437;-69
2022/07/11 12:03:22;;;;;;;2.27;2.10;;;27.90;20.50;;;;;;5024286;28;20698;-70
2022/07/11 12:05:55;;;;;;;3.10;2.00;;;28.00;22.30;;;;;;5037209;28;20438;-69
2022/07/11 12:08:28;;;;;;;2.30;2.10;;;27.10;21.60;;;;;;5040111;28;20726;-68
2022/07/11 12:10:54;;;;;;;2.80;2.20;;;27.00;21.80;;;;;;5043440;28;20965;-69
2022/07/11 12:13:20;;;;;;;2.60;2.33;;;25.80;23.00;;;;;;5032908;28;20444;-68
2022/07/11 12:18:35;;;;;;;4.80;2.30;;;25.30;22.90;;;;;;5037547;28;20187;-68
2022/07/11 12:21:10;;;;;;;3.00;1.97;;;26.60;23.30;;;;;;5031237;28;20439;-69
2022/07/11 12:23:36;;;;;;;2.03;1.93;;;28.00;21.90;;;;;;5049804;28;20430;-68
2022/07/11 12:26:02;;;;;;;4.07;2.20;;;28.80;18.70;;;;;;5036956;28;20422;-68
2022/07/11 12:28:27;;;;;;;2.33;2.13;;;29.30;19.90;;;;;;5029681;28;20813;-69
2022/07/11 12:30:57;;;;;;;6.40;2.20;;;29.90;18.10;;;;;;5030328;28;20179;-69
2022/07/11 12:33:25;;;;;;;2.33;2.13;;;30.40;18.70;;;;;;5028350;28;20197;-70
2022/07/11 12:35:55;;;;;;;1.90;1.90;;;29.90;17.60;;;;;;5029671;28;20462;-69
2022/07/11 12:38:22;;;;;;;2.30;2.10;;;29.60;19.20;;;;;;5023034;28;20518;-69
2022/07/11 12:41:02;;;;;;;3.67;2.00;;;29.40;19.20;;;;;;5029579;28;20434;-68
2022/07/11 12:46:33;;;;;;;2.50;2.30;;;31.30;15.80;;;;;;5034237;28;20825;-70
2022/07/11 12:49:04;;;;;;;3.50;3.10;;;30.90;16.20;;;;;;5043631;28;20933;-71
2022/07/11 12:51:37;;;;;;;3.00;2.30;;;31.10;16.40;;;;;;5032405;28;20925;-69
2022/07/11 12:54:05;;;;;;;4.43;2.40;;;30.50;17.00;;;;;;5035818;28;20441;-69
2022/07/11 12:56:31;;;;;;;2.37;2.13;;;27.60;19.60;;;;;;5025178;28;20454;-68
2022/07/11 12:59:01;;;;;;;2.43;2.13;;;26.80;22.00;;;;;;5031122;28;20473;-72
2022/07/11 13:01:27;;;;;;;2.60;2.40;;;27.50;20.30;;;;;;5032163;28;20423;-71
2022/07/11 13:03:53;;;;;;;5.33;2.50;;;27.20;20.90;;;;;;5039003;28;20468;-70